sensor_id;sensor_type;location;lat;lon;timestamp;pressure;altitude;pressure_sealevel;temperature;humidity
63663;BME280;49815;51.618;0.336;2022-10-15T00:02:17;99901.03;;;11.95;54.71
63663;BME280;49815;51.618;0.336;2022-10-15T00:04:42;99899.67;;;12.19;54.61
63663;BME280;49815;51.618;0.336;2022-10-15T00:07:07;99894.62;;;12.13;53.90
63663;BME280;49815;51.618;0.336;2022-10-15T00:09:33;99898.37;;;11.75;53.22
63663;BME280;49815;51.618;0.336;2022-10-15T00:11:59;99897.53;;;11.67;52.70
63663;BME280;49815;51.618;0.336;2022-10-15T00:14:24;99899.07;;;11.91;52.56
63663;BME280;49815;51.618;0.336;2022-10-15T00:16:49;99898.86;;;11.28;53.36
63663;BME280;49815;51.618;0.336;2022-10-15T00:19:14;99897.08;;;11.76;54.34
63663;BME280;49815;51.618;0.336;2022-10-15T00:21:40;99889.35;;;11.56;53.44
63663;BME280;49815;51.618;0.336;2022-10-15T00:24:06;99879.43;;;11.80;54.22
63663;BME280;49815;51.618;0.336;2022-10-15T00:26:30;99876.63;;;11.67;55.25
63663;BME280;49815;51.618;0.336;2022-10-15T00:28:58;99874.84;;;11.64;55.12
63663;BME280;49815;51.618;0.336;2022-10-15T00:31:22;99876.12;;;11.65;55.30
63663;BME280;49815;51.618;0.336;2022-10-15T00:33:48;99875.08;;;11.80;55.09
63663;BME280;49815;51.618;0.336;2022-10-15T00:36:14;99874.67;;;11.94;54.39
63663;BME280;49815;51.618;0.336;2022-10-15T00:38:37;99872.07;;;11.74;52.96
63663;BME280;49815;51.618;0.336;2022-10-15T00:41:04;99870.26;;;11.88;52.80
63663;BME280;49815;51.618;0.336;2022-10-15T00:43:39;99867.67;;;11.56;52.30
63663;BME280;49815;51.618;0.336;2022-10-15T00:45:54;99863.37;;;11.46;52.02
63663;BME280;49815;51.618;0.336;2022-10-15T00:48:19;99863.19;;;11.65;52.04
63663;BME280;49815;51.618;0.336;2022-10-15T00:50:44;99856.74;;;11.46;51.42
63663;BME280;49815;51.618;0.336;2022-10-15T00:53:10;99850.69;;;11.64;51.32
63663;BME280;49815;51.618;0.336;2022-10-15T00:55:38;99846.62;;;11.60;51.66
63663;BME280;49815;51.618;0.336;2022-10-15T00:58:05;99839.18;;;11.07;51.77
63663;BME280;49815;51.618;0.336;2022-10-15T01:00:27;99831.20;;;10.79;51.71
63663;BME280;49815;51.618;0.336;2022-10-15T01:02:51;99825.40;;;11.00;51.37
63663;BME280;49815;51.618;0.336;2022-10-15T01:05:17;99824.37;;;11.09;51.07
63663;BME280;49815;51.618;0.336;2022-10-15T01:07:43;99823.94;;;11.01;51.58
63663;BME280;49815;51.618;0.336;2022-10-15T01:10:09;99819.59;;;10.81;51.35
63663;BME280;49815;51.618;0.336;2022-10-15T01:12:47;99822.04;;;10.59;50.70
63663;BME280;49815;51.618;0.336;2022-10-15T01:15:04;99820.16;;;10.44;50.98
63663;BME280;49815;51.618;0.336;2022-10-15T01:17:28;99816.44;;;10.60;51.30
63663;BME280;49815;51.618;0.336;2022-10-15T01:20:02;99816.71;;;10.49;50.37
63663;BME280;49815;51.618;0.336;2022-10-15T01:22:19;99808.55;;;10.45;50.62
63663;BME280;49815;51.618;0.336;2022-10-15T01:24:55;99804.69;;;10.48;51.14
63663;BME280;49815;51.618;0.336;2022-10-15T01:27:16;99806.91;;;10.55;50.74
63663;BME280;49815;51.618;0.336;2022-10-15T01:29:48;99805.30;;;10.57;50.83
63663;BME280;49815;51.618;0.336;2022-10-15T01:32:02;99803.61;;;10.05;50.67
63663;BME280;49815;51.618;0.336;2022-10-15T01:34:27;99801.19;;;10.12;50.86
63663;BME280;49815;51.618;0.336;2022-10-15T01:36:54;99800.29;;;10.50;50.66
63663;BME280;49815;51.618;0.336;2022-10-15T01:39:17;99793.83;;;10.45;50.61
63663;BME280;49815;51.618;0.336;2022-10-15T01:41:41;99789.79;;;10.39;50.77
63663;BME280;49815;51.618;0.336;2022-10-15T01:44:08;99788.67;;;10.48;51.28
63663;BME280;49815;51.618;0.336;2022-10-15T01:46:35;99780.99;;;10.10;50.52
63663;BME280;49815;51.618;0.336;2022-10-15T01:48:57;99776.97;;;10.15;50.71
63663;BME280;49815;51.618;0.336;2022-10-15T01:51:23;99770.92;;;9.93;50.19
63663;BME280;49815;51.618;0.336;2022-10-15T01:53:46;99765.17;;;10.58;50.76
63663;BME280;49815;51.618;0.336;2022-10-15T01:56:16;99758.50;;;10.85;51.16
63663;BME280;49815;51.618;0.336;2022-10-15T01:58:39;99752.64;;;10.54;50.74
63663;BME280;49815;51.618;0.336;2022-10-15T02:01:02;99750.28;;;10.71;50.58
63663;BME280;49815;51.618;0.336;2022-10-15T02:03:28;99746.59;;;10.64;50.69
63663;BME280;49815;51.618;0.336;2022-10-15T02:05:58;99744.34;;;10.37;51.36
63663;BME280;49815;51.618;0.336;2022-10-15T02:08:21;99741.80;;;10.40;51.13
63663;BME280;49815;51.618;0.336;2022-10-15T02:10:48;99735.86;;;10.60;50.94
63663;BME280;49815;51.618;0.336;2022-10-15T02:13:13;99732.55;;;10.94;50.93
63663;BME280;49815;51.618;0.336;2022-10-15T02:15:38;99722.79;;;10.74;51.52
63663;BME280;49815;51.618;0.336;2022-10-15T02:18:03;99715.66;;;10.95;51.07
63663;BME280;49815;51.618;0.336;2022-10-15T02:20:29;99709.04;;;11.14;51.37
63663;BME280;49815;51.618;0.336;2022-10-15T02:22:55;99703.92;;;10.99;50.93
63663;BME280;49815;51.618;0.336;2022-10-15T02:25:19;99705.65;;;10.74;51.59
63663;BME280;49815;51.618;0.336;2022-10-15T02:27:41;99704.06;;;10.67;52.75
63663;BME280;49815;51.618;0.336;2022-10-15T02:30:07;99699.44;;;11.25;52.65
63663;BME280;49815;51.618;0.336;2022-10-15T02:32:32;99696.44;;;11.02;52.63
63663;BME280;49815;51.618;0.336;2022-10-15T02:34:57;99692.51;;;11.33;52.62
63663;BME280;49815;51.618;0.336;2022-10-15T02:37:25;99687.32;;;11.43;52.65
63663;BME280;49815;51.618;0.336;2022-10-15T02:39:48;99682.07;;;10.81;52.78
63663;BME280;49815;51.618;0.336;2022-10-15T02:42:13;99679.17;;;11.01;52.82
63663;BME280;49815;51.618;0.336;2022-10-15T02:44:38;99676.77;;;11.44;52.67
63663;BME280;49815;51.618;0.336;2022-10-15T02:47:04;99666.86;;;11.26;52.66
63663;BME280;49815;51.618;0.336;2022-10-15T02:49:28;99662.23;;;11.50;52.65
63663;BME280;49815;51.618;0.336;2022-10-15T02:51:54;99660.48;;;11.46;52.64
63663;BME280;49815;51.618;0.336;2022-10-15T02:54:20;99660.39;;;10.91;52.58
63663;BME280;49815;51.618;0.336;2022-10-15T02:56:45;99656.29;;;10.68;53.45
63663;BME280;49815;51.618;0.336;2022-10-15T02:59:11;99648.19;;;11.26;53.27
63663;BME280;49815;51.618;0.336;2022-10-15T03:01:36;99641.38;;;11.27;52.65
63663;BME280;49815;51.618;0.336;2022-10-15T03:04:02;99642.92;;;11.26;52.72
63663;BME280;49815;51.618;0.336;2022-10-15T03:06:28;99643.82;;;11.08;52.86
63663;BME280;49815;51.618;0.336;2022-10-15T03:08:53;99643.63;;;11.29;52.54
63663;BME280;49815;51.618;0.336;2022-10-15T03:11:18;99639.62;;;11.02;52.57
63663;BME280;49815;51.618;0.336;2022-10-15T03:13:43;99637.01;;;10.20;53.32
63663;BME280;49815;51.618;0.336;2022-10-15T03:16:10;99634.97;;;10.71;53.14
63663;BME280;49815;51.618;0.336;2022-10-15T03:18:35;99638.96;;;10.88;52.84
63663;BME280;49815;51.618;0.336;2022-10-15T03:21:00;99635.31;;;10.83;52.11
63663;BME280;49815;51.618;0.336;2022-10-15T03:23:27;99630.70;;;10.58;51.61
63663;BME280;49815;51.618;0.336;2022-10-15T03:25:51;99628.58;;;11.03;52.34
63663;BME280;49815;51.618;0.336;2022-10-15T03:28:16;99630.17;;;10.45;52.25
63663;BME280;49815;51.618;0.336;2022-10-15T03:30:42;99630.66;;;10.80;52.58
63663;BME280;49815;51.618;0.336;2022-10-15T03:33:07;99628.58;;;10.69;52.48
63663;BME280;49815;51.618;0.336;2022-10-15T03:35:33;99630.25;;;10.41;51.90
63663;BME280;49815;51.618;0.336;2022-10-15T03:37:59;99630.91;;;10.64;51.31
63663;BME280;49815;51.618;0.336;2022-10-15T03:40:24;99632.60;;;10.22;51.61
63663;BME280;49815;51.618;0.336;2022-10-15T03:42:50;99632.65;;;10.62;52.26
63663;BME280;49815;51.618;0.336;2022-10-15T03:45:16;99629.80;;;10.38;52.49
63663;BME280;49815;51.618;0.336;2022-10-15T03:47:41;99628.42;;;10.53;53.55
63663;BME280;49815;51.618;0.336;2022-10-15T03:50:07;99633.70;;;10.29;54.15
63663;BME280;49815;51.618;0.336;2022-10-15T03:52:32;99636.59;;;10.10;54.70
63663;BME280;49815;51.618;0.336;2022-10-15T03:54:57;99632.05;;;10.34;55.09
63663;BME280;49815;51.618;0.336;2022-10-15T03:57:23;99636.19;;;10.17;54.91
63663;BME280;49815;51.618;0.336;2022-10-15T03:59:48;99632.37;;;10.20;54.86
63663;BME280;49815;51.618;0.336;2022-10-15T04:02:13;99627.11;;;10.28;55.04
63663;BME280;49815;51.618;0.336;2022-10-15T04:04:39;99623.69;;;10.84;54.72
63663;BME280;49815;51.618;0.336;2022-10-15T04:07:05;99618.43;;;10.81;54.27
63663;BME280;49815;51.618;0.336;2022-10-15T04:09:30;99609.68;;;10.21;54.23
63663;BME280;49815;51.618;0.336;2022-10-15T04:11:56;99599.80;;;10.64;54.23
63663;BME280;49815;51.618;0.336;2022-10-15T04:14:21;99593.44;;;10.74;54.40
63663;BME280;49815;51.618;0.336;2022-10-15T04:16:47;99590.02;;;10.53;54.48
63663;BME280;49815;51.618;0.336;2022-10-15T04:19:12;99590.62;;;10.27;54.80
63663;BME280;49815;51.618;0.336;2022-10-15T04:21:38;99586.59;;;10.66;54.29
63663;BME280;49815;51.618;0.336;2022-10-15T04:24:03;99585.66;;;10.53;54.21
63663;BME280;49815;51.618;0.336;2022-10-15T04:26:28;99579.11;;;10.70;53.88
63663;BME280;49815;51.618;0.336;2022-10-15T04:28:54;99573.69;;;10.55;53.29
63663;BME280;49815;51.618;0.336;2022-10-15T04:31:20;99571.88;;;10.60;53.07
63663;BME280;49815;51.618;0.336;2022-10-15T04:33:47;99569.62;;;10.47;52.44
63663;BME280;49815;51.618;0.336;2022-10-15T04:36:12;99571.25;;;10.67;51.83
63663;BME280;49815;51.618;0.336;2022-10-15T04:38:35;99568.21;;;10.44;51.72
63663;BME280;49815;51.618;0.336;2022-10-15T04:41:03;99565.61;;;10.41;52.25
63663;BME280;49815;51.618;0.336;2022-10-15T04:43:27;99563.83;;;10.52;52.40
63663;BME280;49815;51.618;0.336;2022-10-15T04:45:55;99564.07;;;10.38;51.22
63663;BME280;49815;51.618;0.336;2022-10-15T04:48:17;99559.45;;;10.22;51.77
63663;BME280;49815;51.618;0.336;2022-10-15T04:50:43;99555.21;;;10.06;51.14
63663;BME280;49815;51.618;0.336;2022-10-15T04:53:08;99554.85;;;10.03;52.17
63663;BME280;49815;51.618;0.336;2022-10-15T04:55:34;99556.98;;;10.46;52.45
63663;BME280;49815;51.618;0.336;2022-10-15T04:57:59;99557.64;;;10.10;54.12
63663;BME280;49815;51.618;0.336;2022-10-15T05:00:25;99556.08;;;10.36;54.13
63663;BME280;49815;51.618;0.336;2022-10-15T05:02:50;99555.61;;;10.20;54.56
63663;BME280;49815;51.618;0.336;2022-10-15T05:05:16;99551.73;;;10.27;54.76
63663;BME280;49815;51.618;0.336;2022-10-15T05:07:41;99550.07;;;10.33;55.01
63663;BME280;49815;51.618;0.336;2022-10-15T05:10:07;99551.68;;;10.13;55.17
63663;BME280;49815;51.618;0.336;2022-10-15T05:12:32;99552.19;;;9.80;55.44
63663;BME280;49815;51.618;0.336;2022-10-15T05:14:58;99548.15;;;10.18;55.90
63663;BME280;49815;51.618;0.336;2022-10-15T05:17:23;99546.25;;;10.00;56.31
63663;BME280;49815;51.618;0.336;2022-10-15T05:19:48;99545.38;;;10.05;56.48
63663;BME280;49815;51.618;0.336;2022-10-15T05:22:14;99544.83;;;10.33;56.49
63663;BME280;49815;51.618;0.336;2022-10-15T05:24:39;99544.06;;;9.32;57.39
63663;BME280;49815;51.618;0.336;2022-10-15T05:27:05;99537.96;;;9.94;56.80
63663;BME280;49815;51.618;0.336;2022-10-15T05:29:31;99535.58;;;10.24;56.29
63663;BME280;49815;51.618;0.336;2022-10-15T05:31:56;99535.80;;;10.23;56.42
63663;BME280;49815;51.618;0.336;2022-10-15T05:34:22;99537.08;;;9.85;56.23
63663;BME280;49815;51.618;0.336;2022-10-15T05:36:47;99536.71;;;10.67;55.42
63663;BME280;49815;51.618;0.336;2022-10-15T05:39:12;99534.77;;;10.44;55.30
63663;BME280;49815;51.618;0.336;2022-10-15T05:41:37;99530.98;;;10.81;55.05
63663;BME280;49815;51.618;0.336;2022-10-15T05:44:03;99529.25;;;10.43;55.18
63663;BME280;49815;51.618;0.336;2022-10-15T05:46:28;99531.84;;;10.78;54.91
63663;BME280;49815;51.618;0.336;2022-10-15T05:48:56;99534.13;;;10.75;54.99
63663;BME280;49815;51.618;0.336;2022-10-15T05:51:20;99534.25;;;11.01;54.79
63663;BME280;49815;51.618;0.336;2022-10-15T05:53:45;99537.82;;;11.01;54.46
63663;BME280;49815;51.618;0.336;2022-10-15T05:56:11;99542.23;;;10.58;54.35
63663;BME280;49815;51.618;0.336;2022-10-15T05:58:36;99541.28;;;10.90;53.95
63663;BME280;49815;51.618;0.336;2022-10-15T06:01:04;99543.11;;;10.87;53.74
63663;BME280;49815;51.618;0.336;2022-10-15T06:03:27;99538.21;;;10.98;53.87
63663;BME280;49815;51.618;0.336;2022-10-15T06:05:52;99537.19;;;11.40;53.55
63663;BME280;49815;51.618;0.336;2022-10-15T06:08:18;99538.94;;;11.43;53.05
63663;BME280;49815;51.618;0.336;2022-10-15T06:10:44;99545.96;;;11.57;53.40
63663;BME280;49815;51.618;0.336;2022-10-15T06:13:09;99542.08;;;11.52;53.21
63663;BME280;49815;51.618;0.336;2022-10-15T06:15:37;99535.73;;;11.09;53.04
63663;BME280;49815;51.618;0.336;2022-10-15T06:17:59;99527.66;;;11.76;52.91
63663;BME280;49815;51.618;0.336;2022-10-15T06:20:25;99527.20;;;11.52;53.00
63663;BME280;49815;51.618;0.336;2022-10-15T06:22:50;99529.39;;;11.50;53.05
63663;BME280;49815;51.618;0.336;2022-10-15T06:25:15;99532.19;;;11.39;53.15
63663;BME280;49815;51.618;0.336;2022-10-15T06:27:41;99530.79;;;11.50;53.40
63663;BME280;49815;51.618;0.336;2022-10-15T06:30:08;99532.67;;;11.53;53.69
63663;BME280;49815;51.618;0.336;2022-10-15T06:32:33;99539.47;;;11.05;53.73
63663;BME280;49815;51.618;0.336;2022-10-15T06:34:58;99541.21;;;10.75;53.60
63663;BME280;49815;51.618;0.336;2022-10-15T06:37:24;99536.52;;;10.78;53.48
63663;BME280;49815;51.618;0.336;2022-10-15T06:39:49;99536.68;;;10.72;53.86
63663;BME280;49815;51.618;0.336;2022-10-15T06:42:15;99535.40;;;11.15;53.86
63663;BME280;49815;51.618;0.336;2022-10-15T06:44:40;99536.49;;;11.22;53.86
63663;BME280;49815;51.618;0.336;2022-10-15T06:47:05;99545.48;;;10.82;54.28
63663;BME280;49815;51.618;0.336;2022-10-15T06:49:31;99545.87;;;10.89;54.83
63663;BME280;49815;51.618;0.336;2022-10-15T06:51:57;99541.96;;;10.85;54.88
63663;BME280;49815;51.618;0.336;2022-10-15T06:54:21;99539.78;;;10.66;55.07
63663;BME280;49815;51.618;0.336;2022-10-15T06:56:46;99540.85;;;10.63;55.17
63663;BME280;49815;51.618;0.336;2022-10-15T06:59:12;99541.56;;;10.43;55.10
63663;BME280;49815;51.618;0.336;2022-10-15T07:01:37;99542.66;;;10.89;54.81
63663;BME280;49815;51.618;0.336;2022-10-15T07:04:03;99541.34;;;10.93;55.05
63663;BME280;49815;51.618;0.336;2022-10-15T07:06:28;99538.32;;;11.01;55.17
63663;BME280;49815;51.618;0.336;2022-10-15T07:08:53;99538.96;;;11.01;55.49
63663;BME280;49815;51.618;0.336;2022-10-15T07:11:18;99542.09;;;11.03;55.52
63663;BME280;49815;51.618;0.336;2022-10-15T07:13:44;99550.06;;;10.78;55.41
63663;BME280;49815;51.618;0.336;2022-10-15T07:16:11;99549.31;;;11.01;55.48
63663;BME280;49815;51.618;0.336;2022-10-15T07:18:36;99551.64;;;11.50;55.24
63663;BME280;49815;51.618;0.336;2022-10-15T07:21:01;99557.00;;;11.43;54.73
63663;BME280;49815;51.618;0.336;2022-10-15T07:23:27;99557.93;;;11.42;54.76
63663;BME280;49815;51.618;0.336;2022-10-15T07:25:51;99549.43;;;11.73;54.50
63663;BME280;49815;51.618;0.336;2022-10-15T07:28:17;99544.95;;;11.42;54.65
63663;BME280;49815;51.618;0.336;2022-10-15T07:30:42;99549.03;;;11.57;54.67
63663;BME280;49815;51.618;0.336;2022-10-15T07:33:07;99552.30;;;11.70;54.29
63663;BME280;49815;51.618;0.336;2022-10-15T07:35:33;99550.32;;;11.71;54.41
63663;BME280;49815;51.618;0.336;2022-10-15T07:37:59;99550.79;;;11.98;54.06
63663;BME280;49815;51.618;0.336;2022-10-15T07:40:23;99556.98;;;10.87;55.23
63663;BME280;49815;51.618;0.336;2022-10-15T07:42:52;99560.90;;;11.32;56.27
63663;BME280;49815;51.618;0.336;2022-10-15T07:45:13;99552.30;;;11.97;55.50
63663;BME280;49815;51.618;0.336;2022-10-15T07:47:39;99552.93;;;12.08;55.48
63663;BME280;49815;51.618;0.336;2022-10-15T07:50:05;99549.95;;;12.57;54.79
63663;BME280;49815;51.618;0.336;2022-10-15T07:52:30;99550.29;;;12.22;55.27
63663;BME280;49815;51.618;0.336;2022-10-15T07:54:55;99556.22;;;11.55;56.52
63663;BME280;49815;51.618;0.336;2022-10-15T07:57:20;99555.71;;;11.60;56.78
63663;BME280;49815;51.618;0.336;2022-10-15T07:59:46;99557.85;;;12.21;56.35
63663;BME280;49815;51.618;0.336;2022-10-15T08:02:14;99559.00;;;11.85;56.60
63663;BME280;49815;51.618;0.336;2022-10-15T08:04:37;99560.98;;;12.16;55.79
63663;BME280;49815;51.618;0.336;2022-10-15T08:07:02;99565.04;;;12.62;55.10
63663;BME280;49815;51.618;0.336;2022-10-15T08:09:29;99565.35;;;12.57;55.22
63663;BME280;49815;51.618;0.336;2022-10-15T08:11:54;99566.69;;;12.88;55.14
63663;BME280;49815;51.618;0.336;2022-10-15T08:14:19;99571.21;;;12.83;55.31
63663;BME280;49815;51.618;0.336;2022-10-15T08:16:44;99568.92;;;11.99;57.17
63663;BME280;49815;51.618;0.336;2022-10-15T08:19:10;99575.05;;;12.58;56.88
63663;BME280;49815;51.618;0.336;2022-10-15T08:21:35;99567.75;;;12.46;56.55
63663;BME280;49815;51.618;0.336;2022-10-15T08:24:00;99570.75;;;12.95;56.64
63663;BME280;49815;51.618;0.336;2022-10-15T08:26:26;99574.55;;;12.76;56.29
63663;BME280;49815;51.618;0.336;2022-10-15T08:28:51;99577.19;;;12.58;57.90
63663;BME280;49815;51.618;0.336;2022-10-15T08:31:17;99581.62;;;12.81;57.12
63663;BME280;49815;51.618;0.336;2022-10-15T08:33:42;99578.46;;;12.82;56.33
63663;BME280;49815;51.618;0.336;2022-10-15T08:36:08;99582.36;;;13.31;55.65
63663;BME280;49815;51.618;0.336;2022-10-15T08:38:33;99581.44;;;13.21;55.48
63663;BME280;49815;51.618;0.336;2022-10-15T08:41:00;99586.10;;;12.99;55.84
63663;BME280;49815;51.618;0.336;2022-10-15T08:43:26;99587.98;;;13.01;55.32
63663;BME280;49815;51.618;0.336;2022-10-15T08:45:53;99592.38;;;13.31;55.02
63663;BME280;49815;51.618;0.336;2022-10-15T08:48:19;99591.99;;;13.38;55.44
63663;BME280;49815;51.618;0.336;2022-10-15T08:50:42;99596.13;;;13.54;54.59
63663;BME280;49815;51.618;0.336;2022-10-15T08:53:04;99589.15;;;12.78;56.47
63663;BME280;49815;51.618;0.336;2022-10-15T08:55:34;99588.29;;;12.53;57.43
63663;BME280;49815;51.618;0.336;2022-10-15T08:57:59;99586.58;;;13.28;55.90
63663;BME280;49815;51.618;0.336;2022-10-15T09:00:22;99585.45;;;12.66;56.05
63663;BME280;49815;51.618;0.336;2022-10-15T09:02:53;99586.07;;;13.03;55.35
63663;BME280;49815;51.618;0.336;2022-10-15T09:05:26;99583.56;;;13.77;53.80
63663;BME280;49815;51.618;0.336;2022-10-15T09:07:41;99584.72;;;13.99;53.29
63663;BME280;49815;51.618;0.336;2022-10-15T09:10:12;99589.58;;;13.91;52.13
63663;BME280;49815;51.618;0.336;2022-10-15T09:12:37;99586.71;;;14.29;51.12
63663;BME280;49815;51.618;0.336;2022-10-15T09:14:54;99589.21;;;14.34;50.87
63663;BME280;49815;51.618;0.336;2022-10-15T09:17:19;99585.99;;;14.76;49.56
63663;BME280;49815;51.618;0.336;2022-10-15T09:19:43;99593.92;;;14.88;49.57
63663;BME280;49815;51.618;0.336;2022-10-15T09:22:12;99592.58;;;15.00;48.19
63663;BME280;49815;51.618;0.336;2022-10-15T09:24:33;99597.37;;;14.21;48.76
63663;BME280;49815;51.618;0.336;2022-10-15T09:27:04;99598.08;;;14.86;48.31
63663;BME280;49815;51.618;0.336;2022-10-15T09:29:28;99605.37;;;15.10;47.04
63663;BME280;49815;51.618;0.336;2022-10-15T09:31:52;99606.51;;;14.19;46.28
63663;BME280;49815;51.618;0.336;2022-10-15T09:34:18;99602.63;;;14.49;46.59
63663;BME280;49815;51.618;0.336;2022-10-15T09:36:44;99607.94;;;14.81;45.64
63663;BME280;49815;51.618;0.336;2022-10-15T09:39:20;99609.42;;;14.58;46.75
63663;BME280;49815;51.618;0.336;2022-10-15T09:41:38;99598.93;;;15.02;45.26
63663;BME280;49815;51.618;0.336;2022-10-15T09:43:57;99602.86;;;14.85;43.57
63663;BME280;49815;51.618;0.336;2022-10-15T09:46:21;99595.45;;;15.42;42.74
63663;BME280;49815;51.618;0.336;2022-10-15T09:48:49;99597.38;;;15.25;42.25
63663;BME280;49815;51.618;0.336;2022-10-15T09:51:22;99600.59;;;15.05;43.09
63663;BME280;49815;51.618;0.336;2022-10-15T09:53:44;99599.62;;;15.50;42.67
63663;BME280;49815;51.618;0.336;2022-10-15T09:56:07;99606.22;;;15.10;42.74
63663;BME280;49815;51.618;0.336;2022-10-15T09:58:29;99593.95;;;15.27;41.06
63663;BME280;49815;51.618;0.336;2022-10-15T10:00:57;99600.60;;;15.49;41.20
63663;BME280;49815;51.618;0.336;2022-10-15T10:03:18;99599.74;;;14.56;41.49
63663;BME280;49815;51.618;0.336;2022-10-15T10:05:43;99596.21;;;15.14;41.67
63663;BME280;49815;51.618;0.336;2022-10-15T10:08:13;99600.10;;;14.94;41.81
63663;BME280;49815;51.618;0.336;2022-10-15T10:10:36;99605.32;;;14.51;42.94
63663;BME280;49815;51.618;0.336;2022-10-15T10:12:59;99601.86;;;15.42;41.58
63663;BME280;49815;51.618;0.336;2022-10-15T10:15:30;99598.07;;;15.53;41.65
63663;BME280;49815;51.618;0.336;2022-10-15T10:17:51;99594.54;;;15.06;41.54
63663;BME280;49815;51.618;0.336;2022-10-15T10:20:17;99596.00;;;14.63;41.94
63663;BME280;49815;51.618;0.336;2022-10-15T10:22:42;99608.15;;;14.95;41.08
63663;BME280;49815;51.618;0.336;2022-10-15T10:27:31;99599.55;;;15.52;40.57
63663;BME280;49815;51.618;0.336;2022-10-15T10:29:58;99604.33;;;14.77;42.03
63663;BME280;49815;51.618;0.336;2022-10-15T10:32:22;99602.63;;;14.96;41.62
63663;BME280;49815;51.618;0.336;2022-10-15T10:34:46;99602.74;;;15.19;41.50
63663;BME280;49815;51.618;0.336;2022-10-15T10:37:11;99604.68;;;15.47;41.41
63663;BME280;49815;51.618;0.336;2022-10-15T10:39:36;99608.47;;;16.01;40.02
63663;BME280;49815;51.618;0.336;2022-10-15T10:42:04;99614.93;;;15.14;41.33
63663;BME280;49815;51.618;0.336;2022-10-15T10:44:29;99608.81;;;15.92;41.24
63663;BME280;49815;51.618;0.336;2022-10-15T10:47:04;99612.88;;;15.19;42.40
63663;BME280;49815;51.618;0.336;2022-10-15T10:49:29;99619.20;;;15.98;42.95
63663;BME280;49815;51.618;0.336;2022-10-15T10:51:48;99613.54;;;15.91;41.00
63663;BME280;49815;51.618;0.336;2022-10-15T10:54:11;99607.14;;;16.13;40.52
63663;BME280;49815;51.618;0.336;2022-10-15T10:56:35;99613.57;;;15.99;40.65
63663;BME280;49815;51.618;0.336;2022-10-15T10:59:01;99611.87;;;16.63;40.14
63663;BME280;49815;51.618;0.336;2022-10-15T11:01:23;99611.45;;;16.97;39.70
63663;BME280;49815;51.618;0.336;2022-10-15T11:03:48;99614.87;;;16.82;39.77
63663;BME280;49815;51.618;0.336;2022-10-15T11:06:39;99612.16;;;16.05;41.66
63663;BME280;49815;51.618;0.336;2022-10-15T11:08:44;99620.54;;;15.85;41.83
63663;BME280;49815;51.618;0.336;2022-10-15T11:11:09;99617.54;;;15.65;41.68
63663;BME280;49815;51.618;0.336;2022-10-15T11:13:45;99618.93;;;15.79;42.36
63663;BME280;49815;51.618;0.336;2022-10-15T11:15:59;99623.88;;;15.39;43.42
63663;BME280;49815;51.618;0.336;2022-10-15T11:18:33;99622.29;;;15.22;43.58
63663;BME280;49815;51.618;0.336;2022-10-15T11:20:51;99614.91;;;16.30;41.91
63663;BME280;49815;51.618;0.336;2022-10-15T11:23:20;99614.02;;;15.80;42.49
63663;BME280;49815;51.618;0.336;2022-10-15T11:25:42;99615.76;;;15.46;43.08
63663;BME280;49815;51.618;0.336;2022-10-15T11:28:15;99620.58;;;15.48;43.46
63663;BME280;49815;51.618;0.336;2022-10-15T11:30:33;99620.86;;;15.96;42.85
63663;BME280;49815;51.618;0.336;2022-10-15T11:32:57;99616.59;;;15.82;42.33
63663;BME280;49815;51.618;0.336;2022-10-15T11:35:27;99617.29;;;16.39;41.93
63663;BME280;49815;51.618;0.336;2022-10-15T11:37:49;99614.11;;;15.83;42.03
63663;BME280;49815;51.618;0.336;2022-10-15T11:40:19;99619.19;;;15.88;42.66
63663;BME280;49815;51.618;0.336;2022-10-15T11:42:37;99615.52;;;15.18;43.68
63663;BME280;49815;51.618;0.336;2022-10-15T11:45:08;99614.08;;;15.76;43.44
63663;BME280;49815;51.618;0.336;2022-10-15T11:47:32;99613.64;;;15.73;42.86
63663;BME280;49815;51.618;0.336;2022-10-15T11:49:54;99611.25;;;15.86;42.49
63663;BME280;49815;51.618;0.336;2022-10-15T11:52:26;99606.09;;;16.29;42.65
63663;BME280;49815;51.618;0.336;2022-10-15T11:54:41;99596.37;;;16.60;41.40
63663;BME280;49815;51.618;0.336;2022-10-15T11:57:04;99602.85;;;16.15;41.48
63663;BME280;49815;51.618;0.336;2022-10-15T11:59:34;99601.84;;;16.41;41.57
63663;BME280;49815;51.618;0.336;2022-10-15T12:01:59;99598.13;;;16.18;41.99
63663;BME280;49815;51.618;0.336;2022-10-15T12:04:26;99601.49;;;15.65;42.99
63663;BME280;49815;51.618;0.336;2022-10-15T12:06:48;99590.97;;;15.92;42.98
63663;BME280;49815;51.618;0.336;2022-10-15T12:09:14;99590.04;;;15.75;42.76
63663;BME280;49815;51.618;0.336;2022-10-15T12:11:43;99603.39;;;15.52;43.30
63663;BME280;49815;51.618;0.336;2022-10-15T12:14:05;99610.97;;;14.97;44.68
63663;BME280;49815;51.618;0.336;2022-10-15T12:16:32;99611.34;;;14.96;45.05
63663;BME280;49815;51.618;0.336;2022-10-15T12:18:56;99614.66;;;15.31;45.78
63663;BME280;49815;51.618;0.336;2022-10-15T12:21:29;99620.39;;;14.97;46.34
63663;BME280;49815;51.618;0.336;2022-10-15T12:23:42;99620.16;;;14.42;47.38
63663;BME280;49815;51.618;0.336;2022-10-15T12:28:32;99629.02;;;14.14;49.31
63663;BME280;49815;51.618;0.336;2022-10-15T12:30:59;99626.00;;;13.84;49.93
63663;BME280;49815;51.618;0.336;2022-10-15T12:33:32;99617.53;;;14.66;48.31
63663;BME280;49815;51.618;0.336;2022-10-15T12:35:53;99622.34;;;15.11;46.89
63663;BME280;49815;51.618;0.336;2022-10-15T12:38:21;99628.72;;;14.80;46.99
63663;BME280;49815;51.618;0.336;2022-10-15T12:40:39;99623.10;;;14.55;46.83
63663;BME280;49815;51.618;0.336;2022-10-15T12:43:11;99610.22;;;15.10;45.31
63663;BME280;49815;51.618;0.336;2022-10-15T12:45:34;99614.94;;;15.90;43.97
63663;BME280;49815;51.618;0.336;2022-10-15T12:50:22;99601.36;;;15.63;45.38
63663;BME280;49815;51.618;0.336;2022-10-15T12:52:56;99604.17;;;15.13;45.72
63663;BME280;49815;51.618;0.336;2022-10-15T12:55:27;99598.77;;;15.30;45.82
63663;BME280;49815;51.618;0.336;2022-10-15T12:57:51;99597.79;;;15.97;44.73